Time;durP1;ratioP1;P1;durP2;ratioP2;P2;SDS_P1;SDS_P2;PMS_P1;PMS_P2;Temp;Humidity;BMP_temperature;BMP_pressure;BME280_temperature;BME280_humidity;BME280_pressure;Samples;Min_cycle;Max_cycle;Signal;HPM_P1;HPM_P2
2022/05/04 00:00:31;;;;;;;2.10;1.90;;;14.20;99.90;;;;;;5079435;28;20025;-76
2022/05/04 00:02:56;;;;;;;2.33;1.90;;;14.20;99.90;;;;;;5082855;28;20027;-76
2022/05/04 00:05:22;;;;;;;2.08;1.88;;;14.00;99.90;;;;;;5077703;28;20056;-76
2022/05/04 00:07:48;;;;;;;2.22;1.83;;;14.10;99.90;;;;;;5070260;28;20028;-76
2022/05/04 00:10:14;;;;;;;2.60;2.03;;;14.00;99.90;;;;;;5062968;28;20032;-76
2022/05/04 00:12:40;;;;;;;2.17;1.98;;;14.10;99.90;;;;;;5074778;28;20028;-76
2022/05/04 00:15:06;;;;;;;2.10;1.90;;;14.10;99.90;;;;;;5071376;28;20082;-75
2022/05/04 00:17:32;;;;;;;2.55;1.80;;;14.00;99.90;;;;;;5080257;28;20055;-76
2022/05/04 00:19:58;;;;;;;2.50;1.75;;;14.00;99.90;;;;;;5079431;28;20056;-76
2022/05/04 00:22:25;;;;;;;2.15;1.80;;;14.00;99.90;;;;;;5076621;28;20040;-75
2022/05/04 00:24:51;;;;;;;2.17;1.85;;;14.00;99.90;;;;;;5056085;28;20481;-76
2022/05/04 00:27:17;;;;;;;1.92;1.73;;;14.00;99.90;;;;;;5072778;28;20016;-75
2022/05/04 00:29:43;;;;;;;1.70;1.60;;;14.00;99.90;;;;;;5069510;28;20036;-77
2022/05/04 00:32:14;;;;;;;2.05;1.80;;;13.90;99.90;;;;;;5075601;28;20029;-77
2022/05/04 00:34:40;;;;;;;;;;;13.80;99.90;;;;;;5070540;28;20020;-77
2022/05/04 00:37:06;;;;;;;2.10;1.90;;;13.70;99.90;;;;;;5076608;28;19935;-76
2022/05/04 00:39:33;;;;;;;2.20;1.83;;;13.70;99.90;;;;;;5084613;28;20020;-76
2022/05/04 00:42:17;;;;;;;2.35;1.65;;;13.70;99.90;;;;;;5092098;28;20024;-76
2022/05/04 00:44:44;;;;;;;2.00;1.80;;;13.60;99.90;;;;;;5080352;28;20024;-76
2022/05/04 00:47:10;;;;;;;2.00;1.90;;;13.50;99.90;;;;;;5075867;28;20051;-77
2022/05/04 00:49:37;;;;;;;2.55;1.88;;;13.50;99.90;;;;;;5081385;28;20443;-77
2022/05/04 00:52:06;;;;;;;2.83;2.28;;;13.40;99.90;;;;;;5077798;28;20111;-76
2022/05/04 00:54:34;;;;;;;2.95;2.53;;;13.40;99.90;;;;;;5082162;28;20021;-76
2022/05/04 00:57:01;;;;;;;2.35;1.90;;;13.30;99.90;;;;;;5087210;28;20567;-76
2022/05/04 00:59:28;;;;;;;2.38;2.00;;;13.30;99.90;;;;;;5082519;28;20024;-77
2022/05/04 01:01:54;;;;;;;2.20;2.00;;;13.30;99.90;;;;;;5075231;28;20020;-77
2022/05/04 01:04:19;;;;;;;2.88;1.83;;;13.20;99.90;;;;;;5083390;28;20092;-77
2022/05/04 01:06:46;;;;;;;1.98;1.77;;;13.30;99.90;;;;;;5056482;28;20409;-77
2022/05/04 01:09:12;;;;;;;2.08;1.88;;;13.30;99.90;;;;;;5071643;28;20021;-77
2022/05/04 01:11:38;;;;;;;2.35;2.10;;;13.40;99.90;;;;;;5077499;28;20115;-77
2022/05/04 01:14:06;;;;;;;1.95;1.80;;;13.40;99.90;;;;;;5078002;28;20108;-77
2022/05/04 01:16:34;;;;;;;2.65;2.00;;;13.40;99.90;;;;;;5079709;28;20489;-77
2022/05/04 01:19:00;;;;;;;2.80;1.95;;;13.40;99.90;;;;;;5084549;28;20077;-76
2022/05/04 01:21:26;;;;;;;1.73;1.58;;;13.20;99.90;;;;;;5090191;28;20020;-77
2022/05/04 01:23:54;;;;;;;2.10;1.90;;;13.20;99.90;;;;;;5073439;28;20452;-77
2022/05/04 01:26:20;;;;;;;2.13;1.70;;;13.20;99.90;;;;;;5066582;28;20071;-76
2022/05/04 01:28:46;;;;;;;2.58;2.20;;;13.20;99.90;;;;;;5073140;28;20508;-76
2022/05/04 01:31:12;;;;;;;2.70;2.00;;;13.20;99.90;;;;;;5089202;28;20055;-76
2022/05/04 01:33:39;;;;;;;3.05;2.00;;;13.20;99.90;;;;;;5080442;28;20517;-76
2022/05/04 01:36:05;;;;;;;2.92;2.47;;;13.20;99.90;;;;;;5087006;28;20082;-76
2022/05/04 01:38:30;;;;;;;2.50;2.30;;;13.20;99.90;;;;;;5085107;28;20099;-76
2022/05/04 01:40:56;;;;;;;2.38;1.63;;;13.20;99.90;;;;;;5084233;28;20107;-76
2022/05/04 01:43:22;;;;;;;2.60;2.10;;;13.40;99.90;;;;;;5085915;28;20576;-76
2022/05/04 01:45:47;;;;;;;2.20;2.00;;;13.30;99.90;;;;;;5057165;28;20033;-77
2022/05/04 01:48:13;;;;;;;2.60;2.00;;;13.30;99.90;;;;;;5081342;28;20037;-77
2022/05/04 01:50:39;;;;;;;2.42;2.22;;;13.20;99.90;;;;;;5079325;28;20054;-76
2022/05/04 01:53:05;;;;;;;2.63;1.95;;;13.20;99.90;;;;;;5076899;28;20498;-76
2022/05/04 01:55:34;;;;;;;2.75;2.13;;;13.20;99.90;;;;;;5062336;28;20525;-76
2022/05/04 01:58:00;;;;;;;2.47;2.28;;;13.20;99.90;;;;;;5084469;28;20501;-76
2022/05/04 02:00:26;;;;;;;3.10;2.75;;;13.30;99.90;;;;;;5085988;28;20025;-76
2022/05/04 02:02:53;;;;;;;3.13;2.83;;;13.30;99.90;;;;;;5078078;28;20561;-76
2022/05/04 02:05:20;;;;;;;3.15;2.85;;;13.30;99.90;;;;;;5075502;28;20120;-76
2022/05/04 02:07:45;;;;;;;3.85;3.42;;;13.30;99.90;;;;;;5081946;28;20063;-76
2022/05/04 02:10:11;;;;;;;4.28;3.40;;;13.30;99.90;;;;;;5078167;28;20300;-76
2022/05/04 02:12:38;;;;;;;4.32;3.92;;;13.30;99.90;;;;;;5071508;28;20043;-76
2022/05/04 02:15:05;;;;;;;4.20;3.53;;;13.40;99.90;;;;;;5085233;28;20031;-77
2022/05/04 02:17:30;;;;;;;5.03;4.07;;;13.40;99.90;;;;;;5064354;28;20021;-77
2022/05/04 02:19:56;;;;;;;6.60;4.68;;;13.40;99.90;;;;;;5069167;28;20028;-77
2022/05/04 02:22:22;;;;;;;6.13;5.53;;;13.40;99.90;;;;;;5083953;28;20492;-77
2022/05/04 02:24:47;;;;;;;7.18;6.47;;;13.40;99.90;;;;;;5058625;28;20032;-76
2022/05/04 02:27:13;;;;;;;8.63;7.50;;;13.40;99.90;;;;;;5058284;28;20499;-76
2022/05/04 02:29:39;;;;;;;9.00;8.10;;;13.50;99.90;;;;;;5070204;28;20048;-76
2022/05/04 02:32:06;;;;;;;10.77;8.35;;;13.50;99.90;;;;;;5075086;28;20020;-76
2022/05/04 02:34:31;;;;;;;8.43;7.53;;;13.60;99.90;;;;;;5066288;28;20032;-76
2022/05/04 02:39:41;;;;;;;8.80;7.18;;;13.50;99.90;;;;;;5073899;28;20043;-76
2022/05/04 02:42:07;;;;;;;9.50;7.00;;;13.60;99.90;;;;;;5080650;28;20017;-76
2022/05/04 02:44:33;;;;;;;9.45;8.13;;;13.60;99.90;;;;;;5086745;28;20564;-76
2022/05/04 02:46:58;;;;;;;13.20;8.57;;;13.70;99.90;;;;;;5079919;28;20063;-76
2022/05/04 02:49:24;;;;;;;12.20;10.13;;;13.60;99.90;;;;;;5074146;28;20489;-76
2022/05/04 02:51:50;;;;;;;9.88;8.55;;;13.60;99.90;;;;;;5076172;28;20107;-76
2022/05/04 02:54:16;;;;;;;11.48;9.30;;;13.70;99.90;;;;;;5080094;28;20537;-76
2022/05/04 02:56:41;;;;;;;12.00;10.15;;;13.70;99.90;;;;;;5082466;28;20044;-77
2022/05/04 02:59:07;;;;;;;10.88;9.63;;;13.60;99.90;;;;;;5069683;28;20504;-76
2022/05/04 03:04:17;;;;;;;10.93;8.77;;;13.70;99.90;;;;;;5070395;28;20051;-76
2022/05/04 03:06:43;;;;;;;10.23;8.30;;;13.80;99.90;;;;;;5065744;28;20053;-77
2022/05/04 03:09:09;;;;;;;10.45;8.55;;;13.80;99.90;;;;;;5083158;28;20024;-76
2022/05/04 03:14:21;;;;;;;13.52;10.68;;;13.70;99.90;;;;;;5076183;28;20054;-76
2022/05/04 03:16:47;;;;;;;13.68;11.85;;;13.70;99.90;;;;;;5082038;28;20024;-77
2022/05/04 03:19:14;;;;;;;14.50;11.95;;;13.70;99.90;;;;;;5080945;28;20027;-77
2022/05/04 03:21:41;;;;;;;16.85;12.52;;;13.70;99.90;;;;;;5070983;28;20029;-77
2022/05/04 03:24:07;;;;;;;19.58;13.05;;;13.70;99.90;;;;;;5059738;28;20049;-76
2022/05/04 03:26:33;;;;;;;16.65;12.85;;;13.70;99.90;;;;;;5080495;28;20029;-76
2022/05/04 03:28:59;;;;;;;17.15;12.95;;;13.70;99.90;;;;;;5081170;28;20035;-76
2022/05/04 03:31:24;;;;;;;13.73;12.23;;;13.80;99.90;;;;;;5067071;28;20378;-76
2022/05/04 03:33:50;;;;;;;16.65;12.60;;;13.80;99.90;;;;;;5078238;28;20024;-76
2022/05/04 03:36:16;;;;;;;14.57;12.38;;;13.80;99.90;;;;;;5059076;28;20429;-76
2022/05/04 03:38:44;;;;;;;15.88;12.23;;;13.80;99.90;;;;;;5084713;28;20413;-76
2022/05/04 03:41:10;;;;;;;14.90;11.55;;;13.90;99.90;;;;;;5077581;28;20028;-76
2022/05/04 03:43:35;;;;;;;15.82;12.15;;;13.70;99.90;;;;;;5071945;28;20028;-77
2022/05/04 03:46:40;;;;;;;15.85;12.88;;;13.70;99.90;;;;;;5061447;28;20027;-76
2022/05/04 03:49:07;;;;;;;17.20;12.68;;;13.70;99.90;;;;;;5051267;28;20047;-76
2022/05/04 03:51:33;;;;;;;16.02;11.93;;;13.70;99.90;;;;;;5081447;28;20016;-76
2022/05/04 03:53:59;;;;;;;17.48;12.90;;;13.70;99.90;;;;;;5083757;28;20039;-76
2022/05/04 03:56:24;;;;;;;16.95;12.25;;;13.80;99.90;;;;;;5084636;28;20145;-76
2022/05/04 03:58:50;;;;;;;15.48;12.63;;;13.70;99.90;;;;;;5080864;28;20028;-76
2022/05/04 04:01:18;;;;;;;17.25;12.45;;;13.70;99.90;;;;;;5070835;28;20025;-76
2022/05/04 04:03:43;;;;;;;16.15;13.20;;;13.70;99.90;;;;;;5071334;28;20054;-76
2022/05/04 04:06:09;;;;;;;18.73;13.98;;;13.70;99.90;;;;;;5080451;28;20032;-76
2022/05/04 04:08:35;;;;;;;16.98;14.02;;;13.70;99.90;;;;;;5084773;28;20036;-76
2022/05/04 04:11:01;;;;;;;19.17;13.85;;;13.70;99.90;;;;;;5083733;28;20554;-76
2022/05/04 04:13:27;;;;;;;16.55;12.68;;;13.70;99.90;;;;;;5081550;28;20517;-76
2022/05/04 04:15:54;;;;;;;15.63;13.07;;;13.80;99.90;;;;;;5086975;28;20020;-76
2022/05/04 04:18:24;;;;;;;17.98;13.63;;;13.80;99.90;;;;;;5090181;28;20537;-76
2022/05/04 04:23:35;;;;;;;19.35;12.95;;;13.70;99.90;;;;;;5067033;28;20040;-76
2022/05/04 04:26:02;;;;;;;16.95;13.88;;;13.70;99.90;;;;;;5078965;28;20028;-76
2022/05/04 04:28:28;;;;;;;21.42;14.30;;;13.70;99.90;;;;;;5062651;28;20028;-76
2022/05/04 04:30:54;;;;;;;18.58;13.18;;;13.60;99.90;;;;;;5084504;28;20120;-76
2022/05/04 04:33:24;;;;;;;17.95;13.90;;;13.70;99.90;;;;;;5084117;28;20039;-76
2022/05/04 04:35:51;;;;;;;17.35;13.50;;;13.80;99.90;;;;;;5065152;28;20108;-77
2022/05/04 04:38:17;;;;;;;16.85;12.35;;;13.80;99.90;;;;;;5070322;28;20112;-76
2022/05/04 04:40:42;;;;;;;15.90;13.13;;;13.70;99.90;;;;;;5080517;28;20095;-76
2022/05/04 04:43:08;;;;;;;16.55;12.85;;;13.70;99.90;;;;;;5075036;28;20028;-76
2022/05/04 04:45:34;;;;;;;15.10;12.80;;;13.80;99.90;;;;;;5067070;28;20027;-76
2022/05/04 04:48:00;;;;;;;17.17;12.27;;;13.70;99.90;;;;;;5079146;28;20037;-76
2022/05/04 04:50:25;;;;;;;17.25;13.77;;;13.70;99.90;;;;;;5085414;28;20062;-76
2022/05/04 04:52:51;;;;;;;15.57;13.15;;;13.70;99.90;;;;;;5078804;28;20028;-75
2022/05/04 04:55:17;;;;;;;17.23;13.20;;;13.70;99.90;;;;;;5079429;28;20056;-75
2022/05/04 04:57:43;;;;;;;17.30;13.75;;;13.70;99.90;;;;;;5084621;28;20044;-75
2022/05/04 05:00:09;;;;;;;17.52;13.18;;;13.60;99.90;;;;;;5079051;28;20017;-75
2022/05/04 05:02:35;;;;;;;16.48;12.70;;;13.80;99.90;;;;;;5082922;28;20119;-75
2022/05/04 05:05:02;;;;;;;16.50;12.48;;;13.90;99.90;;;;;;5079135;28;20028;-75
2022/05/04 05:07:29;;;;;;;17.17;12.82;;;13.80;99.90;;;;;;5079069;28;20020;-76
2022/05/04 05:09:55;;;;;;;19.33;14.27;;;13.70;99.90;;;;;;5072626;28;20629;-75
2022/05/04 05:12:23;;;;;;;16.83;14.23;;;13.70;99.90;;;;;;5070423;28;20489;-75
2022/05/04 05:17:34;;;;;;;21.30;14.65;;;13.60;99.90;;;;;;5076681;28;20041;-74
2022/05/04 05:20:01;;;;;;;19.48;15.05;;;13.70;99.90;;;;;;5075186;28;20029;-75
2022/05/04 05:22:27;;;;;;;18.08;13.52;;;13.70;99.90;;;;;;5062406;28;20082;-75
2022/05/04 05:24:52;;;;;;;17.80;13.75;;;13.80;99.90;;;;;;5059809;28;20077;-75
2022/05/04 05:27:18;;;;;;;19.13;14.95;;;13.70;99.90;;;;;;5068328;28;20372;-75
2022/05/04 05:29:44;;;;;;;23.75;14.93;;;13.80;99.90;;;;;;5087472;28;20395;-75
2022/05/04 05:32:10;;;;;;;18.05;14.82;;;13.80;99.90;;;;;;5078399;28;20024;-74
2022/05/04 05:34:35;;;;;;;19.05;14.30;;;13.80;99.90;;;;;;5081740;28;20036;-75
2022/05/04 05:37:01;;;;;;;17.88;13.57;;;13.80;99.90;;;;;;5086564;28;20073;-75
2022/05/04 05:39:27;;;;;;;21.30;16.38;;;13.80;99.90;;;;;;5073355;28;20507;-75
2022/05/04 05:41:53;;;;;;;18.80;14.80;;;13.70;99.90;;;;;;5080167;28;20044;-75
2022/05/04 05:44:19;;;;;;;20.38;14.63;;;13.80;99.90;;;;;;5085477;28;20028;-74
2022/05/04 05:46:44;;;;;;;18.42;14.45;;;13.80;99.90;;;;;;5077864;28;20399;-75
2022/05/04 05:49:10;;;;;;;16.73;13.88;;;13.90;99.90;;;;;;5059045;28;20025;-74
2022/05/04 05:51:36;;;;;;;16.52;13.75;;;13.90;99.90;;;;;;5080878;28;20443;-75
2022/05/04 05:54:02;;;;;;;18.70;14.40;;;14.00;99.90;;;;;;5061198;28;20041;-75
2022/05/04 05:56:27;;;;;;;18.90;14.60;;;13.90;99.90;;;;;;5078204;28;20048;-75
2022/05/04 05:58:53;;;;;;;19.63;14.63;;;13.90;99.90;;;;;;5078468;28;20032;-75
2022/05/04 06:01:19;;;;;;;17.33;13.30;;;13.90;99.90;;;;;;5064801;28;20027;-75
2022/05/04 06:03:44;;;;;;;18.70;14.00;;;14.00;99.90;;;;;;5059517;28;20471;-75
2022/05/04 06:06:10;;;;;;;17.75;14.23;;;13.80;99.90;;;;;;5082278;28;20017;-75
2022/05/04 06:08:36;;;;;;;18.85;15.43;;;13.90;99.90;;;;;;5082517;28;20039;-74
2022/05/04 06:11:02;;;;;;;19.40;14.65;;;13.90;99.90;;;;;;5070109;28;20071;-75
2022/05/04 06:13:27;;;;;;;17.50;13.88;;;13.90;99.90;;;;;;5068533;28;20024;-75
2022/05/04 06:15:53;;;;;;;19.48;15.18;;;13.90;99.90;;;;;;5082296;28;20487;-75
2022/05/04 06:18:19;;;;;;;18.02;13.75;;;13.90;99.90;;;;;;5075413;28;20047;-75
2022/05/04 06:20:45;;;;;;;19.23;14.90;;;14.00;99.90;;;;;;5081708;28;20488;-75
2022/05/04 06:23:10;;;;;;;17.98;14.50;;;14.00;99.90;;;;;;5073624;28;20103;-75
2022/05/04 06:25:36;;;;;;;20.70;15.20;;;13.90;99.90;;;;;;5070582;28;20020;-75
2022/05/04 06:28:04;;;;;;;22.77;15.73;;;13.90;99.90;;;;;;5071985;28;20414;-77
2022/05/04 06:35:58;;;;;;;20.75;15.20;;;13.90;99.90;;;;;;5064161;28;20036;-75
2022/05/04 06:38:24;;;;;;;19.55;15.77;;;13.90;99.90;;;;;;5074913;28;20437;-75
2022/05/04 06:40:50;;;;;;;19.75;14.90;;;14.00;99.90;;;;;;5074436;28;20099;-75
2022/05/04 06:43:15;;;;;;;19.40;15.27;;;14.00;99.90;;;;;;5074824;28;20107;-75
2022/05/04 06:45:41;;;;;;;23.58;15.57;;;13.90;99.90;;;;;;5071933;28;20251;-75
2022/05/04 06:48:07;;;;;;;19.55;14.65;;;13.90;99.90;;;;;;5060499;28;20693;-74
2022/05/04 06:50:33;;;;;;;20.88;14.73;;;13.90;99.90;;;;;;5064869;28;20030;-74
